createdAt,value
2023-03-07T00:00:43.486Z,5.83
2023-03-07T00:03:14.991Z,6.05
2023-03-07T00:05:41.929Z,6.00
2023-03-07T00:08:09.137Z,5.99
2023-03-07T00:10:35.808Z,5.97
2023-03-07T00:13:02.238Z,5.85
2023-03-07T00:15:28.748Z,6.25
2023-03-07T00:17:55.188Z,5.52
2023-03-07T00:20:21.696Z,5.72
2023-03-07T00:22:48.097Z,5.59
2023-03-07T00:25:15.442Z,5.62
2023-03-07T00:27:42.347Z,6.01
2023-03-07T00:30:12.390Z,5.98
2023-03-07T00:32:39.022Z,5.90
2023-03-07T00:35:05.905Z,5.82
2023-03-07T00:37:32.359Z,6.18
2023-03-07T00:39:58.774Z,6.02
2023-03-07T00:42:25.190Z,5.91
2023-03-07T00:44:51.675Z,5.93
2023-03-07T00:47:18.194Z,6.08
2023-03-07T00:49:44.649Z,6.31
2023-03-07T00:52:11.036Z,6.08
2023-03-07T00:54:37.547Z,5.95
2023-03-07T00:57:04.029Z,6.11
2023-03-07T00:59:30.528Z,6.13
2023-03-07T01:01:56.939Z,6.27
2023-03-07T01:04:23.381Z,6.26
2023-03-07T01:06:50.474Z,6.10
2023-03-07T01:09:16.879Z,6.05
2023-03-07T01:11:43.528Z,5.52
2023-03-07T01:14:11.053Z,5.46
2023-03-07T01:16:38.544Z,5.87
2023-03-07T01:19:07.936Z,6.43
2023-03-07T01:21:37.829Z,5.32
2023-03-07T01:24:10.322Z,6.17
2023-03-07T01:26:37.040Z,5.89
2023-03-07T01:29:05.492Z,5.72
2023-03-07T01:31:32.561Z,6.03
2023-03-07T01:33:59.729Z,6.00
2023-03-07T01:36:31.447Z,5.34
2023-03-07T01:39:06.273Z,5.47
2023-03-07T01:41:34.710Z,5.59
2023-03-07T01:44:05.280Z,5.91
2023-03-07T01:46:46.915Z,5.89
2023-03-07T01:49:24.158Z,5.80
2023-03-07T01:51:59.417Z,5.83
2023-03-07T01:54:27.195Z,5.97
2023-03-07T01:56:54.826Z,5.22
2023-03-07T01:59:29.408Z,5.94
2023-03-07T02:01:57.766Z,5.80
2023-03-07T02:04:34.419Z,4.69
2023-03-07T02:07:02.603Z,5.69
2023-03-07T02:09:32.729Z,5.81
2023-03-07T02:12:01.622Z,5.22
2023-03-07T02:14:28.199Z,5.87
2023-03-07T02:16:54.820Z,5.47
2023-03-07T02:19:42.795Z,5.28
2023-03-07T02:22:12.186Z,5.61
2023-03-07T02:24:38.561Z,5.05
2023-03-07T02:27:06.023Z,5.14
2023-03-07T02:29:32.544Z,6.07
2023-03-07T02:31:58.977Z,5.64
2023-03-07T02:34:28.032Z,5.79
2023-03-07T02:37:22.259Z,5.32
2023-03-07T02:39:48.865Z,6.08
2023-03-07T02:42:22.363Z,5.70
2023-03-07T02:44:57.221Z,5.86
2023-03-07T02:47:23.694Z,5.82
2023-03-07T02:49:50.125Z,6.29
2023-03-07T02:52:16.546Z,5.57
2023-03-07T02:54:43.002Z,4.82
2023-03-07T02:57:10.641Z,5.66
2023-03-07T02:59:37.052Z,5.30
2023-03-07T03:02:03.773Z,5.87
2023-03-07T03:04:30.294Z,5.09
2023-03-07T03:06:56.800Z,5.53
2023-03-07T03:09:23.598Z,5.37
2023-03-07T03:11:50.020Z,5.72
2023-03-07T03:14:16.448Z,5.59
2023-03-07T03:16:42.860Z,5.46
2023-03-07T03:19:09.344Z,5.63
2023-03-07T03:21:35.770Z,5.03
2023-03-07T03:24:07.057Z,5.35
2023-03-07T03:26:34.616Z,5.23
2023-03-07T03:29:01.782Z,5.69
2023-03-07T03:31:30.354Z,5.45
2023-03-07T03:33:58.284Z,5.34
2023-03-07T03:36:26.526Z,5.26
2023-03-07T03:38:54.492Z,5.63
2023-03-07T03:41:21.300Z,5.69
2023-03-07T03:43:48.002Z,4.56
2023-03-07T03:46:14.865Z,4.36
2023-03-07T03:48:41.318Z,5.35
2023-03-07T03:51:14.523Z,4.70
2023-03-07T03:53:41.304Z,5.05
2023-03-07T03:56:09.337Z,4.75
2023-03-07T03:58:35.972Z,4.63
2023-03-07T04:01:05.760Z,4.35
2023-03-07T04:03:36.910Z,4.44
2023-03-07T04:06:05.040Z,4.69
2023-03-07T04:08:32.697Z,4.60
2023-03-07T04:10:59.851Z,5.31
2023-03-07T04:13:26.715Z,5.30
2023-03-07T04:15:54.567Z,4.51
2023-03-07T04:18:22.588Z,5.00
2023-03-07T04:20:50.418Z,5.41
2023-03-07T04:23:18.343Z,5.38
2023-03-07T04:26:11.314Z,5.51
2023-03-07T04:28:45.544Z,4.47
2023-03-07T04:31:18.144Z,4.84
2023-03-07T04:33:45.712Z,4.89
2023-03-07T04:36:13.002Z,5.27
2023-03-07T04:38:40.556Z,5.12
2023-03-07T04:41:07.722Z,5.08
2023-03-07T04:43:34.573Z,5.57
2023-03-07T04:46:01.409Z,4.79
2023-03-07T04:48:27.847Z,5.03
2023-03-07T04:50:54.230Z,5.44
2023-03-07T04:53:20.650Z,4.97
2023-03-07T04:55:47.084Z,4.87
2023-03-07T04:58:14.493Z,5.05
2023-03-07T05:00:44.997Z,5.24
2023-03-07T05:03:13.200Z,5.97
2023-03-07T05:05:39.952Z,5.43
2023-03-07T05:08:07.134Z,5.11
2023-03-07T05:10:35.242Z,5.09
2023-03-07T05:13:02.107Z,5.90
2023-03-07T05:15:28.943Z,5.53
2023-03-07T05:17:55.502Z,5.79
2023-03-07T05:20:23.429Z,5.45
2023-03-07T05:22:50.355Z,5.87
2023-03-07T05:25:16.909Z,5.72
2023-03-07T05:27:43.753Z,5.31
2023-03-07T05:30:11.504Z,5.23
2023-03-07T05:32:38.074Z,5.82
2023-03-07T05:35:04.936Z,5.50
2023-03-07T05:37:31.446Z,5.34
2023-03-07T05:39:57.871Z,5.75
2023-03-07T05:42:24.309Z,5.81
2023-03-07T05:44:50.853Z,5.24
2023-03-07T05:47:17.296Z,5.56
2023-03-07T05:49:43.785Z,6.09
2023-03-07T05:52:10.210Z,6.03
2023-03-07T05:54:36.603Z,6.02
2023-03-07T05:57:03.089Z,5.72
2023-03-07T05:59:29.508Z,6.45
2023-03-07T06:01:55.916Z,5.43
2023-03-07T06:04:22.347Z,5.52
2023-03-07T06:06:48.756Z,5.67
2023-03-07T06:09:15.295Z,5.67
2023-03-07T06:11:41.723Z,5.80
2023-03-07T06:14:08.188Z,5.88
2023-03-07T06:16:34.581Z,5.77
2023-03-07T06:19:01.030Z,5.25
2023-03-07T06:21:27.428Z,5.64
2023-03-07T06:23:53.883Z,4.69
2023-03-07T06:26:20.328Z,4.20
2023-03-07T06:28:46.781Z,3.92
2023-03-07T06:31:16.175Z,4.29
2023-03-07T06:33:43.312Z,4.39
2023-03-07T06:36:12.782Z,4.86
2023-03-07T06:38:39.789Z,5.14
2023-03-07T06:41:06.538Z,5.30
2023-03-07T06:43:33.362Z,4.15
2023-03-07T06:46:01.936Z,4.42
2023-03-07T06:48:28.856Z,4.82
2023-03-07T06:50:55.385Z,5.10
2023-03-07T06:53:21.817Z,3.78
2023-03-07T06:55:52.046Z,4.40
2023-03-07T06:58:18.855Z,5.12
2023-03-07T07:00:45.550Z,4.45
2023-03-07T07:03:14.085Z,4.94
2023-03-07T07:05:40.749Z,4.87
2023-03-07T07:08:07.209Z,5.31
2023-03-07T07:10:36.870Z,4.75
2023-03-07T07:13:04.568Z,5.04
2023-03-07T07:15:31.688Z,5.31
2023-03-07T07:17:58.257Z,4.46
2023-03-07T07:20:24.742Z,5.02
2023-03-07T07:22:51.211Z,5.41
2023-03-07T07:25:17.692Z,4.51
2023-03-07T07:27:44.160Z,4.87
2023-03-07T07:30:11.308Z,5.35
2023-03-07T07:32:37.956Z,5.78
2023-03-07T07:35:05.042Z,4.90
2023-03-07T07:37:31.480Z,5.47
2023-03-07T07:39:58.537Z,5.15
2023-03-07T07:42:25.061Z,5.35
2023-03-07T07:44:51.535Z,5.19
2023-03-07T07:47:17.962Z,5.70
2023-03-07T07:49:44.383Z,5.40
2023-03-07T07:52:10.835Z,5.09
2023-03-07T07:54:37.264Z,5.78
2023-03-07T07:57:03.821Z,5.69
2023-03-07T07:59:31.747Z,5.29
2023-03-07T08:01:58.212Z,5.33
2023-03-07T08:04:25.316Z,5.30
2023-03-07T08:06:52.353Z,5.23
2023-03-07T08:09:18.913Z,5.47
2023-03-07T08:11:45.590Z,5.03
2023-03-07T08:14:12.086Z,5.52
2023-03-07T08:16:39.072Z,5.50
2023-03-07T08:19:05.483Z,5.29
2023-03-07T08:21:31.922Z,5.30
2023-03-07T08:23:58.328Z,5.04
2023-03-07T08:26:24.840Z,5.53
2023-03-07T08:28:51.362Z,5.27
2023-03-07T08:31:23.348Z,4.77
2023-03-07T08:33:50.564Z,5.71
2023-03-07T08:36:17.419Z,5.28
2023-03-07T08:38:43.875Z,4.79
2023-03-07T08:41:10.340Z,5.61
2023-03-07T08:43:37.829Z,4.80
2023-03-07T08:46:05.106Z,5.63
2023-03-07T08:48:31.838Z,5.19
2023-03-07T08:51:04.087Z,5.00
2023-03-07T08:53:30.486Z,5.03
2023-03-07T08:55:56.885Z,5.37
2023-03-07T08:58:23.343Z,4.74
2023-03-07T09:00:49.753Z,3.92
2023-03-07T09:03:16.226Z,4.45
2023-03-07T09:05:42.673Z,4.31
2023-03-07T09:08:09.151Z,4.64
2023-03-07T09:10:38.130Z,5.09
2023-03-07T09:13:04.628Z,4.09
2023-03-07T09:15:31.141Z,4.78
2023-03-07T09:17:57.637Z,3.81
2023-03-07T09:20:24.809Z,3.86
2023-03-07T09:22:54.220Z,4.75
2023-03-07T09:25:20.906Z,4.17
2023-03-07T09:27:47.388Z,4.07
2023-03-07T09:30:14.846Z,3.88
2023-03-07T09:32:41.679Z,4.87
2023-03-07T09:35:08.849Z,4.76
2023-03-07T09:37:35.253Z,4.99
2023-03-07T09:40:02.237Z,4.77
2023-03-07T09:43:05.548Z,4.85
2023-03-07T09:46:13.201Z,5.46
2023-03-07T09:48:48.693Z,5.88
2023-03-07T09:51:38.367Z,5.50
2023-03-07T09:54:39.778Z,5.43
2023-03-07T09:57:15.742Z,5.32
2023-03-07T09:59:47.311Z,5.90
2023-03-07T10:02:21.408Z,5.75
2023-03-07T10:05:10.140Z,6.60
2023-03-07T10:07:36.982Z,5.18
2023-03-07T10:10:12.837Z,5.62
2023-03-07T10:12:46.751Z,4.84
2023-03-07T10:15:42.434Z,5.73
2023-03-07T10:18:19.267Z,5.33
2023-03-07T10:20:51.720Z,5.62
2023-03-07T10:23:41.115Z,5.52
2023-03-07T10:26:28.732Z,5.65
2023-03-07T10:28:59.590Z,5.67
2023-03-07T10:31:51.861Z,4.78
2023-03-07T10:34:29.608Z,4.95
2023-03-07T10:37:20.036Z,4.98
2023-03-07T10:39:54.112Z,4.37
2023-03-07T10:42:25.290Z,4.84
2023-03-07T10:44:52.308Z,5.51
2023-03-07T10:47:27.084Z,5.16
2023-03-07T10:50:07.848Z,4.89
2023-03-07T10:52:47.530Z,4.28
2023-03-07T10:55:41.789Z,4.53
2023-03-07T10:58:16.988Z,4.18
2023-03-07T11:00:44.569Z,4.58
2023-03-07T11:03:52.226Z,4.37
2023-03-07T11:06:29.511Z,4.46
2023-03-07T11:08:56.325Z,4.48
2023-03-07T11:11:31.928Z,4.52
2023-03-07T11:14:09.962Z,4.20
2023-03-07T11:16:52.789Z,3.87
2023-03-07T11:19:28.282Z,4.44
2023-03-07T11:21:56.133Z,4.28
2023-03-07T11:24:28.659Z,3.57
2023-03-07T11:26:59.890Z,4.29
2023-03-07T11:29:28.429Z,4.07
2023-03-07T11:31:57.770Z,3.79
2023-03-07T11:34:39.392Z,4.71
2023-03-07T11:37:17.054Z,4.60
2023-03-07T11:40:07.982Z,4.34
2023-03-07T11:42:40.362Z,4.57
2023-03-07T11:45:38.304Z,5.02
2023-03-07T11:48:15.706Z,3.99
2023-03-07T11:50:51.335Z,4.07
2023-03-07T11:53:17.692Z,4.53
2023-03-07T11:55:50.692Z,4.83
2023-03-07T11:58:45.007Z,4.47
2023-03-07T12:01:33.931Z,4.57
2023-03-07T12:04:03.105Z,5.10
2023-03-07T12:06:29.491Z,5.20
2023-03-07T12:09:23.833Z,4.93
2023-03-07T12:12:05.253Z,4.47
2023-03-07T12:14:31.614Z,4.40
2023-03-07T12:17:10.153Z,4.35
2023-03-07T12:19:55.450Z,4.86
2023-03-07T12:22:48.342Z,4.26
2023-03-07T12:25:24.854Z,4.69
2023-03-07T12:28:13.290Z,5.13
2023-03-07T12:31:17.282Z,4.16
2023-03-07T12:34:02.791Z,4.51
2023-03-07T12:36:49.787Z,4.48
2023-03-07T12:39:21.630Z,4.83
2023-03-07T12:42:10.271Z,4.97
2023-03-07T12:44:55.051Z,5.19
2023-03-07T12:47:30.666Z,5.17
2023-03-07T12:50:06.574Z,5.01
2023-03-07T12:52:35.889Z,4.86
2023-03-07T12:55:14.116Z,5.21
2023-03-07T12:57:47.667Z,4.61
2023-03-07T13:00:19.365Z,5.27
2023-03-07T13:03:06.624Z,5.00
2023-03-07T13:05:37.421Z,5.30
2023-03-07T13:08:06.762Z,5.50
2023-03-07T13:10:33.594Z,5.41
2023-03-07T13:13:00.110Z,5.43
2023-03-07T13:15:27.681Z,4.96
2023-03-07T13:17:54.014Z,5.83
2023-03-07T13:20:40.458Z,5.75
2023-03-07T13:23:25.316Z,5.55
2023-03-07T13:26:12.639Z,5.66
2023-03-07T13:28:45.075Z,4.55
2023-03-07T13:31:17.654Z,5.36
2023-03-07T13:33:44.218Z,5.66
2023-03-07T13:36:35.391Z,5.61
2023-03-07T13:39:02.337Z,5.26
2023-03-07T13:41:49.245Z,6.19
2023-03-07T13:44:29.263Z,5.53
2023-03-07T13:47:01.080Z,5.79
2023-03-07T13:49:41.995Z,5.37
2023-03-07T13:52:33.034Z,5.68
2023-03-07T13:55:01.929Z,5.54
2023-03-07T13:57:35.704Z,5.54
2023-03-07T14:00:18.412Z,5.88
2023-03-07T14:02:45.515Z,5.84
2023-03-07T14:05:12.796Z,5.90
2023-03-07T14:07:41.871Z,5.75
2023-03-07T14:10:22.798Z,6.41
2023-03-07T14:12:51.867Z,5.44
2023-03-07T14:15:29.635Z,5.49
2023-03-07T14:18:10.915Z,5.35
2023-03-07T14:20:55.526Z,5.64
2023-03-07T14:23:43.189Z,5.29
2023-03-07T14:26:14.734Z,5.73
2023-03-07T14:28:49.804Z,5.46
2023-03-07T14:31:28.121Z,6.19
2023-03-07T14:33:55.026Z,5.31
2023-03-07T14:36:28.916Z,5.58
2023-03-07T14:38:58.613Z,5.34
2023-03-07T14:41:36.646Z,4.80
2023-03-07T14:44:20.756Z,5.15
2023-03-07T14:47:05.841Z,5.35
2023-03-07T14:49:52.488Z,5.82
2023-03-07T14:52:30.744Z,5.61
2023-03-07T14:55:01.730Z,5.25
2023-03-07T14:57:36.690Z,5.09
2023-03-07T15:00:24.755Z,4.50
2023-03-07T15:02:53.914Z,4.59
2023-03-07T15:05:29.812Z,4.10
2023-03-07T15:07:56.745Z,5.58
2023-03-07T15:10:54.572Z,5.23
2023-03-07T15:13:46.294Z,5.37
2023-03-07T15:16:17.990Z,4.94
2023-03-07T15:18:50.012Z,4.91
2023-03-07T15:21:20.498Z,4.56
2023-03-07T15:23:54.839Z,4.07
2023-03-07T15:26:24.220Z,4.18
2023-03-07T15:28:59.254Z,4.70
2023-03-07T15:31:28.329Z,4.47
2023-03-07T15:34:10.106Z,4.96
2023-03-07T15:36:37.402Z,4.37
2023-03-07T15:39:34.463Z,3.86
2023-03-07T15:42:06.657Z,4.02
2023-03-07T15:44:36.315Z,4.25
2023-03-07T15:47:21.377Z,4.86
2023-03-07T15:49:51.153Z,4.38
2023-03-07T15:52:34.475Z,4.56
2023-03-07T15:55:05.236Z,4.02
2023-03-07T15:57:40.969Z,3.81
2023-03-07T16:00:18.178Z,5.10
2023-03-07T16:02:47.609Z,4.28
2023-03-07T16:05:19.992Z,4.36
2023-03-07T16:07:47.547Z,4.02
2023-03-07T16:10:14.029Z,4.21
2023-03-07T16:12:46.131Z,3.85
2023-03-07T16:15:17.591Z,4.07
2023-03-07T16:17:44.476Z,3.78
2023-03-07T16:20:20.436Z,4.62
2023-03-07T16:22:47.819Z,3.43
2023-03-07T16:25:15.685Z,4.30
2023-03-07T16:27:50.487Z,3.67
2023-03-07T16:30:21.002Z,3.69
2023-03-07T16:32:47.737Z,4.50
2023-03-07T16:35:24.359Z,4.01
2023-03-07T16:37:51.245Z,4.18
2023-03-07T16:40:17.926Z,3.54
2023-03-07T16:42:46.120Z,4.64
2023-03-07T16:45:26.047Z,4.35
2023-03-07T16:47:54.672Z,5.14
2023-03-07T16:50:25.518Z,5.26
2023-03-07T16:52:51.985Z,3.82
2023-03-07T16:55:19.263Z,4.58
2023-03-07T16:57:49.203Z,4.47
2023-03-07T17:00:18.838Z,3.82
2023-03-07T17:02:46.710Z,4.33
2023-03-07T17:05:19.032Z,4.40
2023-03-07T17:07:45.685Z,4.30
2023-03-07T17:10:13.918Z,5.05
2023-03-07T17:12:42.230Z,4.55
2023-03-07T17:15:13.144Z,4.63
2023-03-07T17:17:39.725Z,4.72
2023-03-07T17:20:08.134Z,4.63
2023-03-07T17:22:34.970Z,4.57
2023-03-07T17:25:01.594Z,4.62
2023-03-07T17:27:28.357Z,4.63
2023-03-07T17:29:55.171Z,4.10
2023-03-07T17:32:22.047Z,4.89
2023-03-07T17:34:48.517Z,4.08
2023-03-07T17:37:15.020Z,4.93
2023-03-07T17:39:42.298Z,4.87
2023-03-07T17:42:08.710Z,4.87
2023-03-07T17:44:35.380Z,4.43
2023-03-07T17:47:01.828Z,4.65
2023-03-07T17:49:37.067Z,5.11
2023-03-07T17:52:04.949Z,4.17
2023-03-07T17:54:32.435Z,4.33
2023-03-07T17:56:59.043Z,5.22
2023-03-07T17:59:25.530Z,5.11
2023-03-07T18:01:51.964Z,3.88
2023-03-07T18:04:18.955Z,4.23
2023-03-07T18:06:45.447Z,4.77
2023-03-07T18:09:13.396Z,4.39
2023-03-07T18:11:40.287Z,4.24
2023-03-07T18:14:06.721Z,3.69
2023-03-07T18:16:33.165Z,4.98
2023-03-07T18:19:02.293Z,4.14
2023-03-07T18:21:30.378Z,3.84
2023-03-07T18:23:57.203Z,3.68
2023-03-07T18:26:23.667Z,4.41
2023-03-07T18:28:53.160Z,3.39
2023-03-07T18:31:30.936Z,3.84
2023-03-07T18:33:57.467Z,3.92
2023-03-07T18:36:25.502Z,4.07
2023-03-07T18:38:52.166Z,3.87
2023-03-07T18:41:23.935Z,4.30
2023-03-07T18:43:50.729Z,4.02
2023-03-07T18:46:19.310Z,4.99
2023-03-07T18:48:46.160Z,4.79
2023-03-07T18:51:16.038Z,4.96
2023-03-07T18:53:43.274Z,4.80
2023-03-07T18:56:14.985Z,5.26
2023-03-07T18:58:42.377Z,4.87
2023-03-07T19:01:14.965Z,4.63
2023-03-07T19:03:42.222Z,4.49
2023-03-07T19:06:10.306Z,5.08
2023-03-07T19:08:36.820Z,4.51
2023-03-07T19:11:08.078Z,4.58
2023-03-07T19:13:34.920Z,4.30
2023-03-07T19:16:07.293Z,4.98
2023-03-07T19:18:34.975Z,4.66
2023-03-07T19:21:11.579Z,4.77
2023-03-07T19:23:38.650Z,5.17
2023-03-07T19:26:07.719Z,5.31
2023-03-07T19:28:34.618Z,4.74
2023-03-07T19:31:11.862Z,4.49
2023-03-07T19:33:38.879Z,4.68
2023-03-07T19:36:11.608Z,5.18
2023-03-07T19:38:38.845Z,5.07
2023-03-07T19:41:09.368Z,4.71
2023-03-07T19:43:35.798Z,5.27
2023-03-07T19:46:08.050Z,5.15
2023-03-07T19:48:35.279Z,4.74
2023-03-07T19:51:02.088Z,4.33
2023-03-07T19:53:28.781Z,5.07
2023-03-07T19:55:55.961Z,4.93
2023-03-07T19:58:22.530Z,3.94
2023-03-07T20:00:48.983Z,4.12
2023-03-07T20:03:17.818Z,4.42
2023-03-07T20:05:46.586Z,4.17
2023-03-07T20:08:13.036Z,4.40
2023-03-07T20:10:39.819Z,4.46
2023-03-07T20:13:06.881Z,4.94
2023-03-07T20:15:34.577Z,5.18
2023-03-07T20:18:04.264Z,4.73
2023-03-07T20:20:30.720Z,4.37
2023-03-07T20:22:58.632Z,4.02
2023-03-07T20:25:28.890Z,4.54
2023-03-07T20:27:55.345Z,4.92
2023-03-07T20:30:22.041Z,3.88
2023-03-07T20:32:48.491Z,4.22
2023-03-07T20:35:15.082Z,3.95
2023-03-07T20:37:41.490Z,4.00
2023-03-07T20:40:08.762Z,4.05
2023-03-07T20:42:35.200Z,4.37
2023-03-07T20:45:01.640Z,4.12
2023-03-07T20:47:28.225Z,3.76
2023-03-07T20:49:54.670Z,4.61
2023-03-07T20:52:23.479Z,4.25
2023-03-07T20:54:49.918Z,4.54
2023-03-07T20:57:16.317Z,4.48
2023-03-07T20:59:42.696Z,4.68
2023-03-07T21:02:10.835Z,4.13
2023-03-07T21:04:37.476Z,3.91
2023-03-07T21:07:03.931Z,3.87
2023-03-07T21:09:30.420Z,4.20
2023-03-07T21:11:56.886Z,4.60
2023-03-07T21:14:24.640Z,4.42
2023-03-07T21:16:51.205Z,4.60
2023-03-07T21:19:17.759Z,4.22
2023-03-07T21:21:44.605Z,4.25
2023-03-07T21:24:12.308Z,3.76
2023-03-07T21:26:39.143Z,3.38
2023-03-07T21:29:05.554Z,3.77
2023-03-07T21:31:34.061Z,3.54
2023-03-07T21:34:03.700Z,4.38
2023-03-07T21:36:33.887Z,4.84
2023-03-07T21:39:01.825Z,4.31
2023-03-07T21:41:28.253Z,4.52
2023-03-07T21:43:55.580Z,4.97
2023-03-07T21:46:22.976Z,4.15
2023-03-07T21:48:49.890Z,3.96
2023-03-07T21:51:16.589Z,4.37
2023-03-07T21:53:43.159Z,4.03
2023-03-07T21:56:16.970Z,4.19
2023-03-07T21:58:46.880Z,4.15
2023-03-07T22:01:17.008Z,3.76
2023-03-07T22:03:44.065Z,4.47
2023-03-07T22:06:13.140Z,4.66
2023-03-07T22:08:40.150Z,4.48
2023-03-07T22:11:08.246Z,4.51
2023-03-07T22:13:36.409Z,4.73
2023-03-07T22:16:05.721Z,3.66
2023-03-07T22:18:33.023Z,3.87
2023-03-07T22:21:05.062Z,4.09
2023-03-07T22:23:31.571Z,4.33
2023-03-07T22:26:03.462Z,4.59
2023-03-07T22:28:29.998Z,4.10
2023-03-07T22:31:07.233Z,3.07
2023-03-07T22:33:33.852Z,4.03
2023-03-07T22:36:03.320Z,4.16
2023-03-07T22:38:30.226Z,3.79
2023-03-07T22:41:04.533Z,4.35
2023-03-07T22:43:32.730Z,3.45
2023-03-07T22:45:59.429Z,3.76
2023-03-07T22:48:26.564Z,3.61
2023-03-07T22:50:53.146Z,3.35
2023-03-07T22:53:20.015Z,3.63
2023-03-07T22:55:46.582Z,3.69
2023-03-07T22:58:13.286Z,3.33
2023-03-07T23:00:41.420Z,4.07
2023-03-07T23:03:08.359Z,4.28
2023-03-07T23:05:35.555Z,4.41
2023-03-07T23:08:03.639Z,4.21
2023-03-07T23:10:30.960Z,3.83
2023-03-07T23:12:57.362Z,3.23
2023-03-07T23:15:24.585Z,3.59
2023-03-07T23:17:51.252Z,4.31
2023-03-07T23:20:18.892Z,4.20
2023-03-07T23:22:46.192Z,4.09
2023-03-07T23:25:14.875Z,3.88
2023-03-07T23:27:41.556Z,4.29
2023-03-07T23:30:08.957Z,3.79
2023-03-07T23:32:35.747Z,4.22
2023-03-07T23:35:02.895Z,4.21
2023-03-07T23:37:29.425Z,3.63
2023-03-07T23:39:55.839Z,3.82
2023-03-07T23:42:22.330Z,3.99
2023-03-07T23:44:49.540Z,3.89
2023-03-07T23:47:16.785Z,4.08
2023-03-07T23:49:43.215Z,3.87
2023-03-07T23:52:09.871Z,3.82
2023-03-07T23:54:36.292Z,4.21
2023-03-07T23:57:02.734Z,4.17
2023-03-07T23:59:29.141Z,3.94
